createdAt,value
2018-07-09T00:00:51.191Z,13.90
2018-07-09T00:03:19.420Z,13.90
2018-07-09T00:05:51.385Z,14.00
2018-07-09T00:13:23.419Z,13.40
2018-07-09T00:15:51.703Z,13.40
2018-07-09T00:18:19.858Z,13.80
2018-07-09T00:20:47.982Z,14.00
2018-07-09T00:23:16.338Z,14.00
2018-07-09T00:25:45.337Z,14.00
2018-07-09T00:28:13.470Z,13.90
2018-07-09T00:30:41.581Z,13.70
2018-07-09T00:33:09.701Z,13.50
2018-07-09T00:35:37.857Z,13.50
2018-07-09T00:38:06.149Z,13.40
2018-07-09T00:40:34.273Z,13.50
2018-07-09T00:43:02.460Z,13.60
2018-07-09T00:45:30.569Z,13.60
2018-07-09T00:47:58.681Z,13.60
2018-07-09T00:50:26.798Z,13.40
2018-07-09T00:52:54.918Z,13.40
2018-07-09T00:55:23.026Z,13.40
2018-07-09T00:57:51.149Z,13.30
2018-07-09T01:00:19.254Z,13.30
2018-07-09T01:02:47.369Z,13.10
2018-07-09T01:05:15.480Z,13.00
2018-07-09T01:07:43.585Z,13.00
2018-07-09T01:10:11.699Z,13.00
2018-07-09T01:12:39.907Z,13.10
2018-07-09T01:15:08.066Z,13.20
2018-07-09T01:17:36.197Z,13.30
2018-07-09T01:20:04.338Z,13.20
2018-07-09T01:22:32.581Z,13.10
2018-07-09T01:25:00.717Z,12.90
2018-07-09T01:27:28.837Z,12.90
2018-07-09T01:30:06.009Z,12.90
2018-07-09T01:32:34.300Z,12.80
2018-07-09T01:35:02.482Z,12.80
2018-07-09T01:37:30.629Z,12.70
2018-07-09T01:39:58.743Z,12.70
2018-07-09T01:42:26.860Z,12.70
2018-07-09T01:44:54.976Z,12.70
2018-07-09T01:47:23.120Z,12.70
2018-07-09T01:49:51.272Z,12.60
2018-07-09T01:52:19.380Z,12.60
2018-07-09T01:54:47.585Z,12.70
2018-07-09T01:57:15.677Z,12.70
2018-07-09T01:59:43.800Z,12.80
2018-07-09T02:02:11.923Z,12.80
2018-07-09T02:04:40.043Z,12.80
2018-07-09T02:07:08.166Z,12.70
2018-07-09T02:09:36.286Z,12.70
2018-07-09T02:12:04.393Z,12.70
2018-07-09T02:14:32.517Z,12.60
2018-07-09T02:17:00.619Z,12.60
2018-07-09T02:19:28.728Z,12.70
2018-07-09T02:21:56.848Z,12.70
2018-07-09T02:24:24.973Z,12.60
2018-07-09T02:26:53.093Z,12.70
2018-07-09T02:29:21.183Z,12.60
2018-07-09T02:31:49.302Z,12.70
2018-07-09T02:34:17.408Z,12.70
2018-07-09T02:36:45.514Z,12.60
2018-07-09T02:39:14.093Z,12.50
2018-07-09T02:44:10.090Z,12.40
2018-07-09T02:46:38.222Z,12.40
2018-07-09T02:49:06.531Z,12.30
2018-07-09T02:51:34.595Z,12.30
2018-07-09T02:54:02.680Z,12.30
2018-07-09T02:56:31.521Z,12.20
2018-07-09T02:58:59.614Z,12.20
2018-07-09T03:01:27.733Z,12.10
2018-07-09T03:03:55.830Z,12.10
2018-07-09T03:06:24.024Z,12.10
2018-07-09T03:08:52.146Z,12.10
2018-07-09T03:11:20.276Z,12.20
2018-07-09T03:13:48.396Z,12.30
2018-07-09T03:16:16.509Z,12.40
2018-07-09T03:18:44.625Z,12.50
2018-07-09T03:21:12.764Z,12.30
2018-07-09T03:23:40.885Z,12.30
2018-07-09T03:26:08.998Z,12.40
2018-07-09T03:28:37.179Z,12.30
2018-07-09T03:31:05.330Z,12.20
2018-07-09T03:33:33.510Z,12.30
2018-07-09T03:36:01.655Z,12.40
2018-07-09T03:38:29.806Z,12.50
2018-07-09T03:40:58.011Z,12.40
2018-07-09T03:43:26.102Z,12.30
2018-07-09T03:45:54.189Z,12.30
2018-07-09T03:48:22.316Z,12.20
2018-07-09T03:50:50.425Z,12.20
2018-07-09T03:53:18.558Z,12.20
2018-07-09T03:55:46.679Z,12.10
2018-07-09T03:58:14.803Z,12.10
2018-07-09T04:00:42.971Z,12.10
2018-07-09T04:03:11.115Z,12.20
2018-07-09T04:05:39.250Z,12.20
2018-07-09T04:08:07.389Z,12.30
2018-07-09T04:10:35.512Z,12.30
2018-07-09T04:13:03.614Z,12.20
2018-07-09T04:15:31.749Z,12.20
2018-07-09T04:17:59.878Z,12.20
2018-07-09T04:20:28.006Z,12.20
2018-07-09T04:22:56.143Z,12.40
2018-07-09T04:27:52.302Z,12.50
2018-07-09T04:30:20.428Z,12.70
2018-07-09T04:32:48.566Z,13.40
2018-07-09T04:35:16.706Z,14.10
2018-07-09T04:37:44.832Z,14.60
2018-07-09T04:40:12.934Z,14.90
2018-07-09T04:42:41.061Z,15.10
2018-07-09T04:45:09.205Z,15.30
2018-07-09T04:47:37.451Z,15.50
2018-07-09T04:50:06.330Z,15.80
2018-07-09T04:52:34.502Z,16.00
2018-07-09T04:55:02.706Z,16.30
2018-07-09T04:57:30.851Z,16.30
2018-07-09T04:59:59.021Z,16.00
2018-07-09T05:02:27.147Z,15.50
2018-07-09T05:04:55.280Z,15.00
2018-07-09T05:09:51.323Z,14.70
2018-07-09T05:12:19.450Z,14.70
2018-07-09T05:14:47.603Z,14.80
2018-07-09T05:17:15.764Z,15.00
2018-07-09T05:19:43.868Z,15.60
2018-07-09T05:22:11.982Z,16.20
2018-07-09T05:24:40.182Z,16.80
2018-07-09T05:27:08.485Z,17.00
2018-07-09T05:29:36.609Z,17.50
2018-07-09T05:32:04.736Z,18.20
2018-07-09T05:34:32.861Z,18.60
2018-07-09T05:37:01.010Z,18.60
2018-07-09T05:39:29.150Z,19.10
2018-07-09T05:41:57.312Z,18.90
2018-07-09T05:44:25.493Z,19.70
2018-07-09T05:46:53.621Z,20.00
2018-07-09T05:51:49.849Z,19.40
2018-07-09T05:54:17.981Z,19.50
2018-07-09T05:56:46.135Z,20.40
2018-07-09T05:59:14.336Z,21.20
2018-07-09T06:01:42.483Z,21.00
2018-07-09T06:04:10.690Z,21.90
2018-07-09T06:06:38.828Z,22.00
2018-07-09T06:09:07.664Z,22.40
2018-07-09T06:11:35.869Z,22.70
2018-07-09T06:14:03.992Z,22.50
2018-07-09T06:16:32.157Z,23.60
2018-07-09T06:19:00.434Z,23.80
2018-07-09T06:21:28.622Z,23.30
2018-07-09T06:23:56.781Z,23.70
2018-07-09T06:26:24.952Z,24.50
2018-07-09T06:28:53.316Z,25.00
2018-07-09T06:31:21.482Z,25.70
2018-07-09T06:33:49.641Z,23.80
2018-07-09T06:36:17.837Z,23.60
2018-07-09T06:38:46.039Z,24.40
2018-07-09T06:41:14.181Z,24.80
2018-07-09T06:43:42.315Z,25.10
2018-07-09T06:48:38.450Z,26.50
2018-07-09T06:51:06.793Z,27.10
2018-07-09T06:53:34.950Z,27.70
2018-07-09T06:56:03.208Z,26.90
2018-07-09T06:58:31.326Z,26.50
2018-07-09T07:00:59.482Z,27.10
2018-07-09T07:03:27.617Z,27.60
2018-07-09T07:05:55.741Z,28.10
2018-07-09T07:08:23.866Z,27.20
2018-07-09T07:10:52.009Z,25.80
2018-07-09T07:13:20.149Z,26.10
2018-07-09T07:15:48.281Z,27.30
2018-07-09T07:18:16.529Z,28.50
2018-07-09T07:20:44.657Z,26.90
2018-07-09T07:23:12.792Z,27.10
2018-07-09T07:25:40.925Z,27.20
2018-07-09T07:28:09.060Z,26.50
2018-07-09T07:30:37.198Z,26.70
2018-07-09T07:33:05.328Z,26.90
2018-07-09T07:35:33.492Z,27.20
2018-07-09T07:38:01.623Z,27.30
2018-07-09T07:40:29.754Z,26.90
2018-07-09T07:42:57.897Z,25.60
2018-07-09T07:45:26.025Z,26.60
2018-07-09T07:47:54.169Z,27.20
2018-07-09T07:50:22.365Z,27.30
2018-07-09T07:52:50.529Z,26.20
2018-07-09T07:55:18.718Z,26.50
2018-07-09T07:57:47.489Z,26.90
2018-07-09T08:00:15.624Z,27.30
2018-07-09T08:02:43.861Z,27.50
2018-07-09T08:05:12.030Z,27.60
2018-07-09T08:07:40.170Z,26.80
2018-07-09T08:10:08.653Z,26.40
2018-07-09T08:13:36.302Z,26.50
2018-07-09T08:15:05.107Z,26.00
2018-07-09T08:17:33.243Z,26.40
2018-07-09T08:20:01.361Z,27.80
2018-07-09T08:22:29.479Z,26.10
2018-07-09T08:24:57.710Z,27.20
2018-07-09T08:27:25.735Z,26.70
2018-07-09T08:29:53.831Z,26.90
2018-07-09T08:32:21.973Z,27.10
2018-07-09T08:34:50.089Z,26.70
2018-07-09T08:37:18.198Z,26.80
2018-07-09T08:39:46.347Z,26.10
2018-07-09T08:42:14.461Z,26.30
2018-07-09T08:44:43.594Z,26.10
2018-07-09T08:47:12.187Z,27.00
2018-07-09T08:49:40.373Z,27.80
2018-07-09T08:52:08.586Z,26.10
2018-07-09T08:54:36.720Z,27.10
2018-07-09T08:57:04.866Z,26.80
2018-07-09T08:59:33.450Z,27.50
2018-07-09T09:02:01.587Z,28.40
2018-07-09T09:04:29.706Z,29.00
2018-07-09T09:06:57.847Z,29.60
2018-07-09T09:09:25.984Z,29.30
2018-07-09T09:11:54.117Z,29.80
2018-07-09T09:14:28.150Z,30.40
2018-07-09T09:16:56.302Z,30.60
2018-07-09T09:19:24.435Z,30.20
2018-07-09T09:21:52.546Z,28.90
2018-07-09T09:24:20.681Z,29.40
2018-07-09T09:26:48.791Z,28.90
2018-07-09T09:29:16.920Z,29.00
2018-07-09T09:31:45.069Z,29.80
2018-07-09T09:34:13.213Z,28.30
2018-07-09T09:36:41.353Z,28.20
2018-07-09T09:39:09.512Z,29.00
2018-07-09T09:41:37.625Z,30.30
2018-07-09T09:44:05.788Z,30.50
2018-07-09T09:46:33.993Z,30.50
2018-07-09T09:49:02.123Z,31.10
2018-07-09T09:51:30.228Z,31.40
2018-07-09T09:53:58.358Z,31.40
2018-07-09T09:56:26.473Z,31.20
2018-07-09T09:58:54.617Z,31.70
2018-07-09T10:01:22.755Z,31.20
2018-07-09T10:03:50.877Z,31.00
2018-07-09T10:06:19.005Z,31.50
2018-07-09T10:08:47.202Z,32.40
2018-07-09T10:11:15.958Z,31.90
2018-07-09T10:13:44.069Z,31.60
2018-07-09T10:16:12.205Z,30.80
2018-07-09T10:18:40.313Z,30.70
2018-07-09T10:21:08.453Z,30.40
2018-07-09T10:23:36.646Z,30.80
2018-07-09T10:26:04.729Z,30.90
2018-07-09T10:28:33.225Z,32.20
2018-07-09T10:31:01.365Z,31.80
2018-07-09T10:33:29.646Z,32.40
2018-07-09T10:35:57.832Z,31.50
2018-07-09T10:38:25.942Z,31.80
2018-07-09T10:40:54.272Z,31.40
2018-07-09T10:43:22.436Z,32.20
2018-07-09T10:45:50.573Z,32.50
2018-07-09T10:48:18.701Z,32.30
2018-07-09T10:50:46.833Z,32.60
2018-07-09T10:53:14.989Z,29.50
2018-07-09T10:55:43.141Z,31.40
2018-07-09T11:03:07.084Z,31.80
2018-07-09T11:05:35.231Z,31.50
2018-07-09T11:10:31.317Z,31.90
2018-07-09T11:12:59.446Z,31.90
2018-07-09T11:15:27.577Z,31.70
2018-07-09T11:17:55.735Z,31.10
2018-07-09T11:20:23.963Z,31.30
2018-07-09T11:22:52.489Z,31.80
2018-07-09T11:25:20.622Z,32.00
2018-07-09T11:27:48.753Z,31.90
2018-07-09T11:30:16.888Z,32.20
2018-07-09T11:32:45.314Z,32.20
2018-07-09T11:35:13.464Z,32.00
2018-07-09T11:37:41.656Z,32.00
2018-07-09T11:40:09.743Z,30.60
2018-07-09T11:42:37.854Z,31.70
2018-07-09T11:45:11.617Z,31.80
2018-07-09T11:47:40.087Z,31.90
2018-07-09T11:50:08.562Z,32.10
2018-07-09T11:52:36.832Z,31.50
2018-07-09T11:55:05.178Z,30.60
2018-07-09T11:57:33.685Z,31.80
2018-07-09T12:00:02.215Z,32.30
2018-07-09T12:02:30.494Z,32.30
2018-07-09T12:04:58.773Z,32.50
2018-07-09T12:07:27.074Z,32.40
2018-07-09T12:09:55.418Z,32.30
2018-07-09T12:12:23.766Z,33.00
2018-07-09T12:14:52.077Z,32.80
2018-07-09T12:17:20.435Z,31.30
2018-07-09T12:19:48.681Z,31.50
2018-07-09T12:22:17.098Z,31.60
2018-07-09T12:24:45.467Z,31.10
2018-07-09T12:27:13.606Z,31.90
2018-07-09T12:29:41.849Z,32.30
2018-07-09T12:32:09.996Z,32.60
2018-07-09T12:34:38.202Z,32.00
2018-07-09T12:37:06.605Z,32.30
2018-07-09T12:39:34.761Z,32.20
2018-07-09T12:42:02.872Z,32.00
2018-07-09T12:44:31.100Z,31.80
2018-07-09T12:46:59.664Z,32.30
2018-07-09T12:49:28.065Z,32.20
2018-07-09T12:51:56.510Z,31.80
2018-07-09T12:54:24.798Z,32.20
2018-07-09T12:56:53.108Z,32.00
2018-07-09T12:59:21.449Z,31.80
2018-07-09T13:01:49.881Z,32.00
2018-07-09T13:04:17.973Z,31.30
2018-07-09T13:06:46.117Z,31.60
2018-07-09T13:09:14.245Z,31.50
2018-07-09T13:11:42.455Z,31.40
2018-07-09T13:14:10.802Z,31.20
2018-07-09T13:16:38.920Z,31.10
2018-07-09T13:19:07.086Z,31.20
2018-07-09T13:21:35.250Z,31.30
2018-07-09T13:24:03.399Z,31.00
2018-07-09T13:26:31.530Z,30.10
2018-07-09T13:28:59.899Z,30.90
2018-07-09T13:31:28.371Z,31.80
2018-07-09T13:34:05.464Z,32.00
2018-07-09T13:36:33.757Z,31.20
2018-07-09T13:39:02.099Z,31.30
2018-07-09T13:41:30.412Z,31.50
2018-07-09T13:43:58.714Z,31.20
2018-07-09T13:46:27.018Z,30.90
2018-07-09T13:48:55.511Z,30.00
2018-07-09T13:51:23.767Z,29.50
2018-07-09T13:53:52.098Z,28.90
2018-07-09T13:56:20.519Z,28.80
2018-07-09T13:58:48.819Z,28.70
2018-07-09T14:01:21.189Z,28.50
2018-07-09T14:03:49.312Z,29.20
2018-07-09T14:06:17.416Z,29.50
2018-07-09T14:08:45.549Z,29.30
2018-07-09T14:11:13.653Z,29.40
2018-07-09T14:13:41.774Z,29.60
2018-07-09T14:16:12.286Z,29.80
2018-07-09T14:21:08.833Z,28.50
2018-07-09T14:23:36.953Z,28.00
2018-07-09T14:26:05.115Z,27.70
2018-07-09T14:28:33.245Z,27.60
2018-07-09T14:31:01.391Z,27.80
2018-07-09T14:33:29.506Z,27.70
2018-07-09T14:35:57.629Z,27.60
2018-07-09T14:38:25.750Z,27.80
2018-07-09T14:40:53.890Z,27.80
2018-07-09T14:43:22.061Z,28.20
2018-07-09T14:45:50.167Z,28.20
2018-07-09T14:48:18.296Z,28.70
2018-07-09T14:50:46.421Z,28.40
2018-07-09T14:53:14.542Z,28.70
2018-07-09T14:55:42.670Z,28.90
2018-07-09T14:58:10.815Z,28.80
2018-07-09T15:00:38.958Z,28.90
2018-07-09T15:03:07.154Z,29.20
2018-07-09T15:05:35.289Z,29.50
2018-07-09T15:08:03.416Z,29.40
2018-07-09T15:10:31.656Z,29.10
2018-07-09T15:12:59.802Z,29.20
2018-07-09T15:15:27.950Z,29.10
2018-07-09T15:20:24.057Z,28.90
2018-07-09T15:22:52.460Z,28.80
2018-07-09T15:25:20.589Z,29.00
2018-07-09T15:27:48.741Z,29.10
2018-07-09T15:30:16.862Z,28.80
2018-07-09T15:32:45.013Z,28.90
2018-07-09T15:35:13.141Z,28.90
2018-07-09T15:40:09.172Z,28.80
2018-07-09T15:45:05.481Z,28.50
2018-07-09T15:47:33.658Z,28.60
2018-07-09T15:50:01.798Z,28.50
2018-07-09T15:52:29.924Z,28.40
2018-07-09T15:54:58.065Z,27.90
2018-07-09T15:57:26.221Z,27.70
2018-07-09T15:59:54.493Z,27.30
2018-07-09T16:02:22.594Z,27.20
2018-07-09T16:04:51.692Z,27.10
2018-07-09T16:07:19.960Z,27.00
2018-07-09T16:09:48.170Z,27.00
2018-07-09T16:12:16.309Z,26.80
2018-07-09T16:14:44.436Z,26.70
2018-07-09T16:17:13.609Z,26.80
2018-07-09T16:19:41.750Z,26.80
2018-07-09T16:22:09.880Z,26.80
2018-07-09T16:24:38.021Z,26.90
2018-07-09T16:27:06.210Z,26.70
2018-07-09T16:29:34.361Z,26.80
2018-07-09T16:32:02.517Z,26.90
2018-07-09T16:34:30.679Z,26.80
2018-07-09T16:37:02.906Z,26.90
2018-07-09T16:39:31.069Z,27.00
2018-07-09T16:41:59.221Z,27.00
2018-07-09T16:44:27.381Z,27.00
2018-07-09T16:46:55.567Z,27.00
2018-07-09T16:49:23.636Z,27.00
2018-07-09T16:51:51.769Z,27.10
2018-07-09T16:54:19.880Z,27.10
2018-07-09T16:56:48.081Z,27.00
2018-07-09T16:59:16.223Z,27.00
2018-07-09T17:01:44.363Z,27.00
2018-07-09T17:04:12.485Z,27.00
2018-07-09T17:06:40.625Z,26.80
2018-07-09T17:09:08.755Z,26.80
2018-07-09T17:11:36.895Z,26.60
2018-07-09T17:14:05.030Z,26.50
2018-07-09T17:16:33.188Z,26.50
2018-07-09T17:19:01.369Z,26.40
2018-07-09T17:21:29.544Z,26.30
2018-07-09T17:23:57.668Z,26.10
2018-07-09T17:26:25.840Z,25.90
2018-07-09T17:28:53.933Z,25.90
2018-07-09T17:31:22.061Z,25.80
2018-07-09T17:33:50.218Z,25.80
2018-07-09T17:36:18.330Z,25.70
2018-07-09T17:38:46.455Z,25.80
2018-07-09T17:41:14.567Z,25.80
2018-07-09T17:43:42.736Z,25.80
2018-07-09T17:46:10.823Z,25.80
2018-07-09T17:48:39.065Z,25.70
2018-07-09T17:51:08.038Z,25.70
2018-07-09T17:53:36.208Z,25.70
2018-07-09T17:56:04.334Z,25.60
2018-07-09T17:58:32.466Z,25.50
2018-07-09T18:01:00.589Z,25.40
2018-07-09T18:03:28.714Z,25.30
2018-07-09T18:05:56.853Z,25.20
2018-07-09T18:08:24.984Z,25.20
2018-07-09T18:10:53.107Z,25.10
2018-07-09T18:13:21.232Z,25.00
2018-07-09T18:15:49.422Z,24.90
2018-07-09T18:18:17.515Z,24.80
2018-07-09T18:20:45.644Z,24.70
2018-07-09T18:23:13.877Z,24.50
2018-07-09T18:25:42.068Z,24.50
2018-07-09T18:28:10.193Z,24.50
2018-07-09T18:30:38.336Z,24.40
2018-07-09T18:33:06.487Z,24.20
2018-07-09T18:35:34.672Z,24.20
2018-07-09T18:38:02.797Z,24.10
2018-07-09T18:40:30.917Z,24.00
2018-07-09T18:42:59.125Z,23.90
2018-07-09T18:45:27.249Z,23.90
2018-07-09T18:47:55.389Z,23.90
2018-07-09T18:50:23.493Z,23.70
2018-07-09T18:52:51.634Z,23.70
2018-07-09T18:55:19.762Z,23.70
2018-07-09T18:57:47.990Z,23.60
2018-07-09T19:00:16.111Z,23.50
2018-07-09T19:02:44.299Z,23.50
2018-07-09T19:05:12.706Z,23.40
2018-07-09T19:07:40.908Z,23.30
2018-07-09T19:10:09.109Z,23.30
2018-07-09T19:12:37.792Z,23.20
2018-07-09T19:15:07.081Z,23.20
2018-07-09T19:18:01.158Z,23.10
2018-07-09T19:20:39.254Z,23.00
2018-07-09T19:23:07.830Z,23.00
2018-07-09T19:25:36.674Z,22.90
2018-07-09T19:28:05.233Z,22.70
2018-07-09T19:30:32.426Z,22.60
2018-07-09T19:32:59.646Z,22.50
2018-07-09T19:35:26.933Z,22.50
2018-07-09T19:37:54.497Z,22.50
2018-07-09T19:40:21.328Z,22.40
2018-07-09T19:42:48.746Z,22.40
2018-07-09T19:45:15.966Z,22.20
2018-07-09T19:47:44.212Z,22.10
2018-07-09T19:50:11.414Z,22.20
2018-07-09T19:52:38.606Z,22.20
2018-07-09T19:55:05.770Z,22.00
2018-07-09T19:57:32.946Z,22.00
2018-07-09T20:00:00.341Z,21.90
2018-07-09T20:02:27.512Z,21.70
2018-07-09T20:04:55.028Z,21.40
2018-07-09T20:07:22.161Z,21.30
2018-07-09T20:09:54.849Z,21.20
2018-07-09T20:12:27.438Z,21.20
2018-07-09T20:14:59.934Z,21.10
2018-07-09T20:17:29.415Z,21.10
2018-07-09T20:19:56.597Z,21.10
2018-07-09T20:22:23.779Z,21.00
2018-07-09T20:24:50.957Z,20.80
2018-07-09T20:27:18.130Z,20.70
2018-07-09T20:29:45.317Z,20.70
2018-07-09T20:32:12.484Z,20.50
2018-07-09T20:34:39.665Z,20.40
2018-07-09T20:37:06.822Z,20.40
2018-07-09T20:39:33.993Z,20.30
2018-07-09T20:42:01.182Z,20.20
2018-07-09T20:44:28.362Z,20.00
2018-07-09T20:46:55.530Z,19.90
2018-07-09T20:49:22.729Z,19.70
2018-07-09T20:51:49.898Z,19.70
2018-07-09T20:54:17.070Z,19.60
2018-07-09T20:56:44.252Z,19.60
2018-07-09T20:59:11.413Z,19.50
2018-07-09T21:01:38.590Z,19.20
2018-07-09T21:04:11.263Z,18.90
2018-07-09T21:06:38.446Z,18.60
2018-07-09T21:09:05.636Z,18.50
2018-07-09T21:11:32.989Z,18.40
2018-07-09T21:14:00.148Z,18.30
2018-07-09T21:16:27.322Z,18.10
2018-07-09T21:18:54.499Z,18.10
2018-07-09T21:21:25.842Z,18.00
2018-07-09T21:23:53.077Z,17.90
2018-07-09T21:26:20.309Z,17.90
2018-07-09T21:28:47.593Z,17.90
2018-07-09T21:31:14.868Z,17.90
2018-07-09T21:33:42.394Z,17.90
2018-07-09T21:36:09.706Z,17.80
2018-07-09T21:38:36.885Z,17.70
2018-07-09T21:41:04.062Z,17.70
2018-07-09T21:43:31.694Z,17.70
2018-07-09T21:45:58.953Z,17.60
2018-07-09T21:48:29.775Z,17.50
2018-07-09T21:50:53.610Z,17.50
2018-07-09T21:53:21.530Z,17.50
2018-07-09T21:55:48.697Z,17.50
2018-07-09T21:58:15.891Z,17.40
2018-07-09T22:00:43.045Z,17.40
2018-07-09T22:03:10.219Z,17.40
2018-07-09T22:05:37.382Z,17.40
2018-07-09T22:08:04.550Z,17.40
2018-07-09T22:10:31.710Z,17.40
2018-07-09T22:15:26.304Z,17.30
2018-07-09T22:17:53.472Z,17.30
2018-07-09T22:20:20.630Z,17.20
2018-07-09T22:22:47.801Z,17.10
2018-07-09T22:25:14.959Z,17.00
2018-07-09T22:27:42.138Z,17.00
2018-07-09T22:30:09.297Z,16.90
2018-07-09T22:32:37.445Z,17.00
2018-07-09T22:35:05.570Z,17.00
2018-07-09T22:37:33.742Z,17.00
2018-07-09T22:40:01.891Z,16.90
2018-07-09T22:42:30.010Z,16.90
2018-07-09T22:44:58.155Z,16.90
2018-07-09T22:47:27.254Z,16.90
2018-07-09T22:49:55.384Z,16.90
2018-07-09T22:52:23.588Z,16.80
2018-07-09T22:55:03.170Z,16.70
2018-07-09T22:57:31.300Z,16.60
2018-07-09T22:59:59.449Z,16.70
2018-07-09T23:02:27.653Z,16.60
2018-07-09T23:04:55.799Z,16.60
2018-07-09T23:07:23.949Z,16.60
2018-07-09T23:10:12.291Z,16.60
2018-07-09T23:13:23.606Z,16.60
2018-07-09T23:16:03.038Z,16.60
2018-07-09T23:18:42.673Z,16.60
2018-07-09T23:21:35.220Z,16.50
2018-07-09T23:24:02.785Z,16.40
2018-07-09T23:26:29.957Z,16.30
2018-07-09T23:28:57.141Z,16.30
2018-07-09T23:31:24.309Z,16.30
2018-07-09T23:33:51.481Z,16.30
2018-07-09T23:36:18.638Z,16.30
2018-07-09T23:38:45.823Z,16.30
2018-07-09T23:41:13.125Z,16.30
2018-07-09T23:43:40.291Z,16.30
2018-07-09T23:46:07.486Z,16.30
2018-07-09T23:48:34.673Z,16.40
2018-07-09T23:51:01.928Z,16.40
2018-07-09T23:53:29.198Z,16.50
2018-07-09T23:59:10.563Z,16.40
